sensor_id;sensor_type;location;lat;lon;timestamp;pressure;altitude;pressure_sealevel;temperature;humidity
71970;BME280;59838;52.152;5.436;2023-03-18T00:00:22;100869.53;;;11.39;82.72
71970;BME280;59838;52.152;5.436;2023-03-18T00:02:48;100870.72;;;11.37;82.95
71970;BME280;59838;52.152;5.436;2023-03-18T00:05:15;100878.88;;;11.33;83.27
71970;BME280;59838;52.152;5.436;2023-03-18T00:07:41;100892.25;;;11.30;83.31
71970;BME280;59838;52.152;5.436;2023-03-18T00:10:10;100897.03;;;11.27;83.50
71970;BME280;59838;52.152;5.436;2023-03-18T00:12:38;100895.81;;;11.23;83.57
71970;BME280;59838;52.152;5.436;2023-03-18T00:15:07;100892.31;;;11.15;83.73
71970;BME280;59838;52.152;5.436;2023-03-18T00:17:34;100899.25;;;11.08;83.97
71970;BME280;59838;52.152;5.436;2023-03-18T00:20:00;100906.81;;;11.03;84.41
71970;BME280;59838;52.152;5.436;2023-03-18T00:22:33;100900.34;;;10.99;84.65
71970;BME280;59838;52.152;5.436;2023-03-18T00:25:02;100901.06;;;10.93;84.87
71970;BME280;59838;52.152;5.436;2023-03-18T00:27:28;100908.00;;;10.86;85.02
71970;BME280;59838;52.152;5.436;2023-03-18T00:29:55;100912.94;;;10.81;85.01
71970;BME280;59838;52.152;5.436;2023-03-18T00:32:24;100909.44;;;10.73;85.54
71970;BME280;59838;52.152;5.436;2023-03-18T00:34:52;100897.81;;;10.69;85.81
71970;BME280;59838;52.152;5.436;2023-03-18T00:37:19;100903.38;;;10.66;85.93
71970;BME280;59838;52.152;5.436;2023-03-18T00:40:00;100914.47;;;10.60;86.08
71970;BME280;59838;52.152;5.436;2023-03-18T00:42:32;100910.00;;;10.54;86.43
71970;BME280;59838;52.152;5.436;2023-03-18T00:45:08;100917.19;;;10.52;86.74
71970;BME280;59838;52.152;5.436;2023-03-18T00:47:36;100914.94;;;10.49;87.07
71970;BME280;59838;52.152;5.436;2023-03-18T00:50:05;100918.84;;;10.45;86.92
71970;BME280;59838;52.152;5.436;2023-03-18T00:52:32;100909.84;;;10.40;87.52
71970;BME280;59838;52.152;5.436;2023-03-18T00:54:59;100916.34;;;10.36;87.09
71970;BME280;59838;52.152;5.436;2023-03-18T00:57:27;100912.53;;;10.32;87.06
71970;BME280;59838;52.152;5.436;2023-03-18T00:59:55;100903.25;;;10.30;87.41
71970;BME280;59838;52.152;5.436;2023-03-18T01:02:22;100907.66;;;10.29;87.63
71970;BME280;59838;52.152;5.436;2023-03-18T01:04:50;100910.78;;;10.24;87.55
71970;BME280;59838;52.152;5.436;2023-03-18T01:07:17;100903.97;;;10.23;87.72
71970;BME280;59838;52.152;5.436;2023-03-18T01:09:44;100906.13;;;10.20;87.77
71970;BME280;59838;52.152;5.436;2023-03-18T01:12:11;100903.69;;;10.18;87.78
71970;BME280;59838;52.152;5.436;2023-03-18T01:14:38;100898.84;;;10.15;88.41
71970;BME280;59838;52.152;5.436;2023-03-18T01:17:06;100902.44;;;10.14;88.60
71970;BME280;59838;52.152;5.436;2023-03-18T01:19:34;100902.44;;;10.14;88.71
71970;BME280;59838;52.152;5.436;2023-03-18T01:22:02;100901.63;;;10.14;88.77
71970;BME280;59838;52.152;5.436;2023-03-18T01:24:28;100898.59;;;10.10;88.97
71970;BME280;59838;52.152;5.436;2023-03-18T01:26:55;100906.53;;;10.09;89.28
71970;BME280;59838;52.152;5.436;2023-03-18T01:29:22;100914.34;;;10.09;89.46
71970;BME280;59838;52.152;5.436;2023-03-18T01:31:49;100911.13;;;10.06;89.47
71970;BME280;59838;52.152;5.436;2023-03-18T01:34:16;100913.88;;;10.05;90.36
71970;BME280;59838;52.152;5.436;2023-03-18T01:36:43;100911.13;;;10.06;90.54
71970;BME280;59838;52.152;5.436;2023-03-18T01:39:09;100914.69;;;10.05;90.56
71970;BME280;59838;52.152;5.436;2023-03-18T01:41:36;100911.47;;;10.03;90.70
71970;BME280;59838;52.152;5.436;2023-03-18T01:44:03;100911.47;;;10.03;90.58
71970;BME280;59838;52.152;5.436;2023-03-18T01:49:10;100910.03;;;10.01;90.86
71970;BME280;59838;52.152;5.436;2023-03-18T01:51:39;100912.16;;;9.97;90.82
71970;BME280;59838;52.152;5.436;2023-03-18T01:54:07;100911.91;;;9.92;90.85
71970;BME280;59838;52.152;5.436;2023-03-18T01:56:36;100914.84;;;9.89;91.01
71970;BME280;59838;52.152;5.436;2023-03-18T01:59:05;100908.84;;;9.88;91.17
71970;BME280;59838;52.152;5.436;2023-03-18T02:01:38;100915.47;;;9.91;91.37
71970;BME280;59838;52.152;5.436;2023-03-18T02:04:06;100912.06;;;9.91;91.71
71970;BME280;59838;52.152;5.436;2023-03-18T02:06:36;100918.22;;;9.89;92.12
71970;BME280;59838;52.152;5.436;2023-03-18T02:09:04;100920.03;;;9.89;92.26
71970;BME280;59838;52.152;5.436;2023-03-18T02:11:34;100912.59;;;9.86;92.41
71970;BME280;59838;52.152;5.436;2023-03-18T02:14:01;100905.63;;;9.86;92.26
71970;BME280;59838;52.152;5.436;2023-03-18T02:16:34;100921.56;;;9.83;92.52
71970;BME280;59838;52.152;5.436;2023-03-18T02:19:12;100920.09;;;9.81;92.47
71970;BME280;59838;52.152;5.436;2023-03-18T02:21:55;100923.03;;;9.78;92.59
71970;BME280;59838;52.152;5.436;2023-03-18T02:24:35;100921.44;;;9.77;92.84
71970;BME280;59838;52.152;5.436;2023-03-18T02:27:27;100923.84;;;9.78;93.14
71970;BME280;59838;52.152;5.436;2023-03-18T02:29:58;100932.28;;;9.80;93.35
71970;BME280;59838;52.152;5.436;2023-03-18T02:32:27;100918.31;;;9.81;93.62
71970;BME280;59838;52.152;5.436;2023-03-18T02:34:58;100924.16;;;9.83;93.90
71970;BME280;59838;52.152;5.436;2023-03-18T02:37:26;100923.16;;;9.84;93.79
71970;BME280;59838;52.152;5.436;2023-03-18T02:39:53;100922.53;;;9.82;93.55
71970;BME280;59838;52.152;5.436;2023-03-18T02:42:30;100928.06;;;9.79;93.58
71970;BME280;59838;52.152;5.436;2023-03-18T02:44:57;100925.97;;;9.75;93.65
71970;BME280;59838;52.152;5.436;2023-03-18T02:47:25;100928.13;;;9.71;93.94
71970;BME280;59838;52.152;5.436;2023-03-18T02:49:52;100933.47;;;9.69;94.13
71970;BME280;59838;52.152;5.436;2023-03-18T02:52:18;100933.47;;;9.69;94.19
71970;BME280;59838;52.152;5.436;2023-03-18T02:54:45;100938.50;;;9.71;94.39
71970;BME280;59838;52.152;5.436;2023-03-18T02:57:12;100942.06;;;9.70;94.31
71970;BME280;59838;52.152;5.436;2023-03-18T02:59:38;100936.09;;;9.69;94.31
71970;BME280;59838;52.152;5.436;2023-03-18T03:02:04;100936.44;;;9.66;94.25
71970;BME280;59838;52.152;5.436;2023-03-18T03:04:31;100934.00;;;9.65;94.42
71970;BME280;59838;52.152;5.436;2023-03-18T03:06:58;100931.31;;;9.58;94.50
71970;BME280;59838;52.152;5.436;2023-03-18T03:09:26;100935.69;;;9.58;95.11
71970;BME280;59838;52.152;5.436;2023-03-18T03:11:54;100934.22;;;9.55;95.50
71970;BME280;59838;52.152;5.436;2023-03-18T03:14:20;100934.06;;;9.57;95.66
71970;BME280;59838;52.152;5.436;2023-03-18T03:16:46;100942.63;;;9.57;95.96
71970;BME280;59838;52.152;5.436;2023-03-18T03:19:13;100937.28;;;9.59;95.94
71970;BME280;59838;52.152;5.436;2023-03-18T03:21:41;100931.13;;;9.60;96.26
71970;BME280;59838;52.152;5.436;2023-03-18T03:24:08;100936.16;;;9.61;96.42
71970;BME280;59838;52.152;5.436;2023-03-18T03:26:35;100937.75;;;9.62;96.45
71970;BME280;59838;52.152;5.436;2023-03-18T03:29:03;100946.19;;;9.64;96.90
71970;BME280;59838;52.152;5.436;2023-03-18T03:31:30;100949.41;;;9.66;97.47
71970;BME280;59838;52.152;5.436;2023-03-18T03:33:57;100958.81;;;9.67;97.48
71970;BME280;59838;52.152;5.436;2023-03-18T03:36:24;100957.81;;;9.68;97.58
71970;BME280;59838;52.152;5.436;2023-03-18T03:38:50;100957.63;;;9.70;97.71
71970;BME280;59838;52.152;5.436;2023-03-18T03:41:17;100960.88;;;9.72;97.84
71970;BME280;59838;52.152;5.436;2023-03-18T03:43:43;100958.13;;;9.74;97.96
71970;BME280;59838;52.152;5.436;2023-03-18T03:46:10;100961.97;;;9.78;97.90
71970;BME280;59838;52.152;5.436;2023-03-18T03:48:37;100955.81;;;9.79;97.63
71970;BME280;59838;52.152;5.436;2023-03-18T03:51:05;100961.63;;;9.81;97.50
71970;BME280;59838;52.152;5.436;2023-03-18T03:53:32;100968.25;;;9.83;97.52
71970;BME280;59838;52.152;5.436;2023-03-18T03:55:59;100965.50;;;9.85;97.12
71970;BME280;59838;52.152;5.436;2023-03-18T03:58:26;100967.09;;;9.86;96.86
71970;BME280;59838;52.152;5.436;2023-03-18T04:00:53;100965.31;;;9.86;97.00
71970;BME280;59838;52.152;5.436;2023-03-18T04:03:19;100966.13;;;9.87;96.84
71970;BME280;59838;52.152;5.436;2023-03-18T04:05:46;100970.97;;;9.90;96.61
71970;BME280;59838;52.152;5.436;2023-03-18T04:08:12;100978.75;;;9.90;96.63
71970;BME280;59838;52.152;5.436;2023-03-18T04:10:39;100976.78;;;9.92;96.40
71970;BME280;59838;52.152;5.436;2023-03-18T04:13:06;100974.97;;;9.93;96.40
71970;BME280;59838;52.152;5.436;2023-03-18T04:15:32;100976.59;;;9.94;96.52
71970;BME280;59838;52.152;5.436;2023-03-18T04:17:59;100977.22;;;9.96;96.36
71970;BME280;59838;52.152;5.436;2023-03-18T04:20:36;100980.66;;;9.96;96.29
71970;BME280;59838;52.152;5.436;2023-03-18T04:23:03;100976.09;;;9.98;96.33
71970;BME280;59838;52.152;5.436;2023-03-18T04:25:30;100976.09;;;9.98;96.38
71970;BME280;59838;52.152;5.436;2023-03-18T04:27:56;100984.50;;;10.00;96.42
71970;BME280;59838;52.152;5.436;2023-03-18T04:30:23;100977.31;;;10.02;96.52
71970;BME280;59838;52.152;5.436;2023-03-18T04:32:52;100979.94;;;10.02;96.80
71970;BME280;59838;52.152;5.436;2023-03-18T04:35:18;100977.16;;;10.04;96.93
71970;BME280;59838;52.152;5.436;2023-03-18T04:37:46;100979.75;;;10.04;96.98
71970;BME280;59838;52.152;5.436;2023-03-18T04:40:13;100978.94;;;10.03;96.93
71970;BME280;59838;52.152;5.436;2023-03-18T04:42:40;100987.72;;;10.02;97.21
71970;BME280;59838;52.152;5.436;2023-03-18T04:45:07;100975.75;;;10.01;97.43
71970;BME280;59838;52.152;5.436;2023-03-18T04:47:33;100979.47;;;9.99;97.90
71970;BME280;59838;52.152;5.436;2023-03-18T04:50:01;100974.47;;;9.97;98.09
71970;BME280;59838;52.152;5.436;2023-03-18T04:52:29;100978.22;;;9.95;98.43
71970;BME280;59838;52.152;5.436;2023-03-18T04:54:56;100980.00;;;9.94;98.82
71970;BME280;59838;52.152;5.436;2023-03-18T04:57:23;100984.56;;;9.92;99.12
71970;BME280;59838;52.152;5.436;2023-03-18T04:59:49;100982.75;;;9.93;99.43
71970;BME280;59838;52.152;5.436;2023-03-18T05:02:16;100988.94;;;9.92;99.86
71970;BME280;59838;52.152;5.436;2023-03-18T05:04:42;100987.31;;;9.91;100.00
71970;BME280;59838;52.152;5.436;2023-03-18T05:07:11;100993.50;;;9.89;100.00
71970;BME280;59838;52.152;5.436;2023-03-18T05:09:41;100991.09;;;9.88;100.00
71970;BME280;59838;52.152;5.436;2023-03-18T05:12:14;100995.47;;;9.87;100.00
71970;BME280;59838;52.152;5.436;2023-03-18T05:14:41;100993.88;;;9.86;100.00
71970;BME280;59838;52.152;5.436;2023-03-18T05:17:08;100994.84;;;9.85;100.00
71970;BME280;59838;52.152;5.436;2023-03-18T05:19:43;101001.00;;;9.84;100.00
71970;BME280;59838;52.152;5.436;2023-03-18T05:22:10;101009.59;;;9.85;100.00
71970;BME280;59838;52.152;5.436;2023-03-18T05:24:38;101002.00;;;9.83;100.00
71970;BME280;59838;52.152;5.436;2023-03-18T05:27:05;101003.75;;;9.83;100.00
71970;BME280;59838;52.152;5.436;2023-03-18T05:29:31;101006.53;;;9.81;100.00
71970;BME280;59838;52.152;5.436;2023-03-18T05:31:58;101016.09;;;9.81;100.00
71970;BME280;59838;52.152;5.436;2023-03-18T05:34:24;101013.69;;;9.79;100.00
71970;BME280;59838;52.152;5.436;2023-03-18T05:36:52;101017.25;;;9.78;100.00
71970;BME280;59838;52.152;5.436;2023-03-18T05:39:18;101024.84;;;9.80;100.00
71970;BME280;59838;52.152;5.436;2023-03-18T05:41:45;101023.88;;;9.81;100.00
71970;BME280;59838;52.152;5.436;2023-03-18T05:44:11;101021.28;;;9.81;100.00
71970;BME280;59838;52.152;5.436;2023-03-18T05:46:38;101014.31;;;9.81;100.00
71970;BME280;59838;52.152;5.436;2023-03-18T05:49:04;101019.31;;;9.83;100.00
71970;BME280;59838;52.152;5.436;2023-03-18T05:51:30;101029.53;;;9.84;100.00
71970;BME280;59838;52.152;5.436;2023-03-18T05:53:57;101035.56;;;9.85;100.00
71970;BME280;59838;52.152;5.436;2023-03-18T05:56:24;101035.56;;;9.85;100.00
71970;BME280;59838;52.152;5.436;2023-03-18T05:58:51;101040.75;;;9.85;100.00
71970;BME280;59838;52.152;5.436;2023-03-18T06:01:17;101033.13;;;9.83;100.00
71970;BME280;59838;52.152;5.436;2023-03-18T06:03:45;101027.75;;;9.85;100.00
71970;BME280;59838;52.152;5.436;2023-03-18T06:06:11;101033.59;;;9.87;100.00
71970;BME280;59838;52.152;5.436;2023-03-18T06:08:38;101046.56;;;9.87;100.00
71970;BME280;59838;52.152;5.436;2023-03-18T06:11:04;101042.16;;;9.87;100.00
71970;BME280;59838;52.152;5.436;2023-03-18T06:13:31;101047.53;;;9.86;100.00
71970;BME280;59838;52.152;5.436;2023-03-18T06:15:59;101043.78;;;9.88;100.00
71970;BME280;59838;52.152;5.436;2023-03-18T06:18:25;101049.59;;;9.91;100.00
71970;BME280;59838;52.152;5.436;2023-03-18T06:20:53;101046.03;;;9.92;100.00
71970;BME280;59838;52.152;5.436;2023-03-18T06:23:19;101054.47;;;9.94;100.00
71970;BME280;59838;52.152;5.436;2023-03-18T06:25:45;101046.69;;;9.94;100.00
71970;BME280;59838;52.152;5.436;2023-03-18T06:28:12;101045.34;;;9.98;100.00
71970;BME280;59838;52.152;5.436;2023-03-18T06:30:38;101060.38;;;10.02;100.00
71970;BME280;59838;52.152;5.436;2023-03-18T06:33:05;101061.66;;;10.06;100.00
71970;BME280;59838;52.152;5.436;2023-03-18T06:35:31;101072.50;;;10.10;100.00
71970;BME280;59838;52.152;5.436;2023-03-18T06:37:58;101068.13;;;10.11;100.00
71970;BME280;59838;52.152;5.436;2023-03-18T06:40:25;101089.72;;;10.11;100.00
71970;BME280;59838;52.152;5.436;2023-03-18T06:42:51;101085.66;;;10.09;100.00
71970;BME280;59838;52.152;5.436;2023-03-18T06:45:18;101095.06;;;10.10;100.00
71970;BME280;59838;52.152;5.436;2023-03-18T06:47:44;101086.66;;;10.07;100.00
71970;BME280;59838;52.152;5.436;2023-03-18T06:50:11;101084.69;;;10.10;100.00
71970;BME280;59838;52.152;5.436;2023-03-18T06:52:38;101074.59;;;10.15;100.00
71970;BME280;59838;52.152;5.436;2023-03-18T06:55:05;101074.06;;;10.19;100.00
71970;BME280;59838;52.152;5.436;2023-03-18T06:57:32;101088.78;;;10.27;100.00
71970;BME280;59838;52.152;5.436;2023-03-18T07:00:00;101085.03;;;10.30;100.00
71970;BME280;59838;52.152;5.436;2023-03-18T07:02:26;101079.66;;;10.31;100.00
71970;BME280;59838;52.152;5.436;2023-03-18T07:04:53;101090.53;;;10.35;100.00
71970;BME280;59838;52.152;5.436;2023-03-18T07:07:20;101097.19;;;10.37;100.00
71970;BME280;59838;52.152;5.436;2023-03-18T07:09:47;101099.44;;;10.40;100.00
71970;BME280;59838;52.152;5.436;2023-03-18T07:12:13;101098.09;;;10.45;100.00
71970;BME280;59838;52.152;5.436;2023-03-18T07:14:41;101104.38;;;10.50;100.00
71970;BME280;59838;52.152;5.436;2023-03-18T07:17:08;101100.09;;;10.57;100.00
71970;BME280;59838;52.152;5.436;2023-03-18T07:19:35;101113.19;;;10.64;100.00
71970;BME280;59838;52.152;5.436;2023-03-18T07:22:02;101111.78;;;10.76;100.00
71970;BME280;59838;52.152;5.436;2023-03-18T07:24:29;101112.72;;;11.13;100.00
71970;BME280;59838;52.152;5.436;2023-03-18T07:26:56;101117.38;;;11.18;100.00
71970;BME280;59838;52.152;5.436;2023-03-18T07:29:22;101114.88;;;11.10;100.00
71970;BME280;59838;52.152;5.436;2023-03-18T07:31:49;101118.00;;;11.05;100.00
71970;BME280;59838;52.152;5.436;2023-03-18T07:34:16;101121.59;;;11.19;100.00
71970;BME280;59838;52.152;5.436;2023-03-18T07:36:44;101118.06;;;12.08;100.00
71970;BME280;59838;52.152;5.436;2023-03-18T07:39:10;101115.63;;;13.06;98.11
71970;BME280;59838;52.152;5.436;2023-03-18T07:41:37;101117.47;;;14.16;90.84
71970;BME280;59838;52.152;5.436;2023-03-18T07:44:04;101116.06;;;14.80;86.50
71970;BME280;59838;52.152;5.436;2023-03-18T07:46:32;101127.69;;;15.24;82.58
71970;BME280;59838;52.152;5.436;2023-03-18T07:48:59;101127.34;;;14.94;81.95
71970;BME280;59838;52.152;5.436;2023-03-18T07:51:26;101130.78;;;14.74;82.28
71970;BME280;59838;52.152;5.436;2023-03-18T07:53:53;101131.72;;;14.06;83.13
71970;BME280;59838;52.152;5.436;2023-03-18T07:56:19;101132.75;;;13.57;85.78
71970;BME280;59838;52.152;5.436;2023-03-18T07:58:46;101141.31;;;13.38;87.12
71970;BME280;59838;52.152;5.436;2023-03-18T08:01:13;101132.19;;;13.20;88.03
71970;BME280;59838;52.152;5.436;2023-03-18T08:03:44;101140.56;;;13.15;88.59
71970;BME280;59838;52.152;5.436;2023-03-18T08:06:13;101137.53;;;13.12;88.78
71970;BME280;59838;52.152;5.436;2023-03-18T08:08:41;101136.47;;;12.99;89.64
71970;BME280;59838;52.152;5.436;2023-03-18T08:11:09;101130.03;;;13.02;90.27
71970;BME280;59838;52.152;5.436;2023-03-18T08:13:37;101137.53;;;13.12;90.35
71970;BME280;59838;52.152;5.436;2023-03-18T08:16:04;101130.66;;;13.32;89.89
71970;BME280;59838;52.152;5.436;2023-03-18T08:18:31;101136.81;;;13.66;88.32
71970;BME280;59838;52.152;5.436;2023-03-18T08:20:57;101136.44;;;13.69;86.78
71970;BME280;59838;52.152;5.436;2023-03-18T08:23:24;101130.44;;;13.76;86.50
71970;BME280;59838;52.152;5.436;2023-03-18T08:25:51;101130.66;;;13.94;86.17
71970;BME280;59838;52.152;5.436;2023-03-18T08:28:18;101128.53;;;14.18;85.33
71970;BME280;59838;52.152;5.436;2023-03-18T08:30:44;101133.94;;;14.23;84.56
71970;BME280;59838;52.152;5.436;2023-03-18T08:33:12;101126.72;;;14.25;83.50
71970;BME280;59838;52.152;5.436;2023-03-18T08:35:39;101131.78;;;14.47;84.39
71970;BME280;59838;52.152;5.436;2023-03-18T08:38:09;101128.16;;;14.74;82.88
71970;BME280;59838;52.152;5.436;2023-03-18T08:40:35;101124.94;;;14.72;81.69
71970;BME280;59838;52.152;5.436;2023-03-18T08:43:02;101127.78;;;14.71;81.82
71970;BME280;59838;52.152;5.436;2023-03-18T08:45:28;101127.56;;;14.86;81.29
71970;BME280;59838;52.152;5.436;2023-03-18T08:47:55;101134.38;;;14.87;79.94
71970;BME280;59838;52.152;5.436;2023-03-18T08:50:21;101132.97;;;14.64;80.65
71970;BME280;59838;52.152;5.436;2023-03-18T08:52:55;101127.72;;;14.51;81.26
71970;BME280;59838;52.152;5.436;2023-03-18T08:55:30;101125.56;;;14.68;81.67
71970;BME280;59838;52.152;5.436;2023-03-18T08:57:57;101136.22;;;14.59;80.15
71970;BME280;59838;52.152;5.436;2023-03-18T09:00:25;101138.38;;;14.36;81.07
71970;BME280;59838;52.152;5.436;2023-03-18T09:02:52;101132.97;;;14.31;81.06
71970;BME280;59838;52.152;5.436;2023-03-18T09:05:19;101131.56;;;14.48;80.43
71970;BME280;59838;52.152;5.436;2023-03-18T09:07:46;101133.00;;;14.71;80.92
71970;BME280;59838;52.152;5.436;2023-03-18T09:10:13;101127.50;;;15.06;80.94
71970;BME280;59838;52.152;5.436;2023-03-18T09:12:40;101140.56;;;15.19;80.12
71970;BME280;59838;52.152;5.436;2023-03-18T09:15:08;101139.19;;;15.10;79.01
71970;BME280;59838;52.152;5.436;2023-03-18T09:17:36;101131.75;;;14.87;80.03
71970;BME280;59838;52.152;5.436;2023-03-18T09:20:25;101144.25;;;14.58;79.56
71970;BME280;59838;52.152;5.436;2023-03-18T09:22:52;101138.97;;;14.31;80.75
71970;BME280;59838;52.152;5.436;2023-03-18T09:25:18;101142.81;;;14.35;81.54
71970;BME280;59838;52.152;5.436;2023-03-18T09:27:45;101147.84;;;14.57;80.90
71970;BME280;59838;52.152;5.436;2023-03-18T09:30:12;101151.25;;;14.51;80.41
71970;BME280;59838;52.152;5.436;2023-03-18T09:32:39;101152.28;;;14.50;81.42
71970;BME280;59838;52.152;5.436;2023-03-18T09:35:06;101162.50;;;14.31;81.50
71970;BME280;59838;52.152;5.436;2023-03-18T09:37:38;101162.69;;;14.10;82.46
71970;BME280;59838;52.152;5.436;2023-03-18T09:40:06;101167.53;;;14.19;83.02
71970;BME280;59838;52.152;5.436;2023-03-18T09:45:43;101161.31;;;14.40;81.47
71970;BME280;59838;52.152;5.436;2023-03-18T09:53:57;101167.53;;;14.46;81.56
71970;BME280;59838;52.152;5.436;2023-03-18T09:56:31;101177.19;;;14.45;80.79
71970;BME280;59838;52.152;5.436;2023-03-18T09:59:23;101177.63;;;14.62;81.29
71970;BME280;59838;52.152;5.436;2023-03-18T10:01:53;101179.66;;;14.80;80.93
71970;BME280;59838;52.152;5.436;2023-03-18T10:04:23;101177.63;;;15.03;80.83
71970;BME280;59838;52.152;5.436;2023-03-18T10:06:57;101180.41;;;15.28;80.26
71970;BME280;59838;52.152;5.436;2023-03-18T10:09:41;101179.97;;;15.38;79.69
71970;BME280;59838;52.152;5.436;2023-03-18T10:17:33;101180.72;;;15.51;77.87
71970;BME280;59838;52.152;5.436;2023-03-18T10:20:04;101185.94;;;15.65;76.83
71970;BME280;59838;52.152;5.436;2023-03-18T10:22:53;101185.94;;;15.65;77.13
71970;BME280;59838;52.152;5.436;2023-03-18T10:38:46;101172.13;;;15.38;74.90
71970;BME280;59838;52.152;5.436;2023-03-18T10:41:28;101175.09;;;15.48;74.71
71970;BME280;59838;52.152;5.436;2023-03-18T10:43:56;101171.56;;;15.74;75.99
71970;BME280;59838;52.152;5.436;2023-03-18T10:46:24;101183.28;;;15.78;73.58
71970;BME280;59838;52.152;5.436;2023-03-18T10:48:59;101177.03;;;15.72;73.60
71970;BME280;59838;52.152;5.436;2023-03-18T10:51:52;101172.00;;;15.71;75.29
71970;BME280;59838;52.152;5.436;2023-03-18T10:54:29;101164.13;;;15.71;74.95
71970;BME280;59838;52.152;5.436;2023-03-18T10:56:58;101165.34;;;15.82;75.33
71970;BME280;59838;52.152;5.436;2023-03-18T10:59:26;101161.31;;;15.72;72.62
71970;BME280;59838;52.152;5.436;2023-03-18T11:01:58;101158.47;;;15.74;73.41
71970;BME280;59838;52.152;5.436;2023-03-18T11:04:28;101165.00;;;16.10;73.75
71970;BME280;59838;52.152;5.436;2023-03-18T11:07:00;101164.81;;;16.37;72.91
71970;BME280;59838;52.152;5.436;2023-03-18T11:09:36;101170.09;;;16.55;71.43
71970;BME280;59838;52.152;5.436;2023-03-18T11:12:22;101162.34;;;16.42;69.97
71970;BME280;59838;52.152;5.436;2023-03-18T11:14:51;101161.66;;;16.28;70.47
71970;BME280;59838;52.152;5.436;2023-03-18T11:17:26;101166.94;;;16.21;70.80
71970;BME280;59838;52.152;5.436;2023-03-18T11:22:47;101154.41;;;16.23;70.50
71970;BME280;59838;52.152;5.436;2023-03-18T11:25:14;101164.91;;;16.23;70.62
71970;BME280;59838;52.152;5.436;2023-03-18T11:27:45;101162.13;;;16.18;70.69
71970;BME280;59838;52.152;5.436;2023-03-18T11:30:16;101169.38;;;16.16;71.64
71970;BME280;59838;52.152;5.436;2023-03-18T11:35:36;101172.81;;;16.17;71.96
71970;BME280;59838;52.152;5.436;2023-03-18T11:38:05;101181.06;;;16.20;71.99
71970;BME280;59838;52.152;5.436;2023-03-18T11:40:32;101172.19;;;16.21;70.56
71970;BME280;59838;52.152;5.436;2023-03-18T11:43:02;101176.75;;;16.33;70.27
71970;BME280;59838;52.152;5.436;2023-03-18T11:45:59;101177.91;;;16.37;70.42
71970;BME280;59838;52.152;5.436;2023-03-18T11:48:38;101176.69;;;16.39;69.65
71970;BME280;59838;52.152;5.436;2023-03-18T11:56:48;101167.06;;;16.33;71.37
71970;BME280;59838;52.152;5.436;2023-03-18T12:01:59;101164.22;;;16.35;70.47
71970;BME280;59838;52.152;5.436;2023-03-18T12:10:22;101159.44;;;16.25;70.30
71970;BME280;59838;52.152;5.436;2023-03-18T12:20:54;101144.38;;;16.71;69.65
71970;BME280;59838;52.152;5.436;2023-03-18T12:23:52;101135.72;;;16.70;69.80
71970;BME280;59838;52.152;5.436;2023-03-18T12:26:43;101145.16;;;16.96;69.96
71970;BME280;59838;52.152;5.436;2023-03-18T12:32:28;101153.84;;;16.72;67.36
71970;BME280;59838;52.152;5.436;2023-03-18T12:35:27;101156.28;;;16.67;69.15
71970;BME280;59838;52.152;5.436;2023-03-18T12:43:50;101166.00;;;16.41;67.86
71970;BME280;59838;52.152;5.436;2023-03-18T12:46:26;101163.88;;;16.24;68.88
71970;BME280;59838;52.152;5.436;2023-03-18T12:49:14;101165.41;;;16.07;68.87
71970;BME280;59838;52.152;5.436;2023-03-18T12:51:49;101163.97;;;16.11;69.62
71970;BME280;59838;52.152;5.436;2023-03-18T12:54:24;101154.97;;;16.00;69.25
71970;BME280;59838;52.152;5.436;2023-03-18T12:57:00;101160.38;;;16.05;69.50
71970;BME280;59838;52.152;5.436;2023-03-18T12:59:41;101165.00;;;16.10;69.55
71970;BME280;59838;52.152;5.436;2023-03-18T13:02:34;101164.22;;;16.03;70.06
71970;BME280;59838;52.152;5.436;2023-03-18T13:05:11;101177.03;;;15.86;68.90
71970;BME280;59838;52.152;5.436;2023-03-18T13:07:46;101168.56;;;15.70;69.65
71970;BME280;59838;52.152;5.436;2023-03-18T13:10:23;101154.94;;;15.62;69.61
71970;BME280;59838;52.152;5.436;2023-03-18T13:12:53;101163.59;;;15.56;68.98
71970;BME280;59838;52.152;5.436;2023-03-18T13:15:27;101159.56;;;15.53;69.34
71970;BME280;59838;52.152;5.436;2023-03-18T13:18:00;101163.44;;;15.50;69.45
71970;BME280;59838;52.152;5.436;2023-03-18T13:20:30;101160.44;;;15.47;70.27
71970;BME280;59838;52.152;5.436;2023-03-18T13:23:07;101161.22;;;15.47;71.62
71970;BME280;59838;52.152;5.436;2023-03-18T13:28:22;101158.22;;;15.37;74.52
71970;BME280;59838;52.152;5.436;2023-03-18T13:31:29;101165.91;;;15.25;76.14
71970;BME280;59838;52.152;5.436;2023-03-18T13:34:08;101171.19;;;15.12;78.00
71970;BME280;59838;52.152;5.436;2023-03-18T13:39:48;101169.81;;;14.83;81.49
71970;BME280;59838;52.152;5.436;2023-03-18T13:42:37;101164.78;;;14.81;82.19
71970;BME280;59838;52.152;5.436;2023-03-18T13:45:37;101159.91;;;15.05;84.21
71970;BME280;59838;52.152;5.436;2023-03-18T13:48:31;101163.59;;;15.56;84.12
71970;BME280;59838;52.152;5.436;2023-03-18T13:51:43;101157.50;;;15.68;82.28
71970;BME280;59838;52.152;5.436;2023-03-18T13:54:12;101158.47;;;15.74;82.87
71970;BME280;59838;52.152;5.436;2023-03-18T14:04:54;101154.06;;;15.81;80.70
71970;BME280;59838;52.152;5.436;2023-03-18T14:07:25;101149.41;;;15.83;79.92
71970;BME280;59838;52.152;5.436;2023-03-18T14:22:41;101134.47;;;15.84;78.05
71970;BME280;59838;52.152;5.436;2023-03-18T14:25:18;101140.31;;;15.93;77.86
71970;BME280;59838;52.152;5.436;2023-03-18T14:27:52;101137.69;;;15.93;77.41
71970;BME280;59838;52.152;5.436;2023-03-18T14:33:03;101136.34;;;15.70;73.45
71970;BME280;59838;52.152;5.436;2023-03-18T14:35:52;101143.41;;;15.63;72.47
71970;BME280;59838;52.152;5.436;2023-03-18T14:38:26;101132.31;;;15.67;73.76
71970;BME280;59838;52.152;5.436;2023-03-18T14:40:56;101130.28;;;15.69;72.45